createdAt,value
2023-05-28T00:01:02.451Z,100885.41
2023-05-28T00:03:36.970Z,100879.75
2023-05-28T00:06:05.224Z,100878.72
2023-05-28T00:08:34.406Z,100884.69
2023-05-28T00:11:01.713Z,100878.50
2023-05-28T00:13:29.910Z,100883.69
2023-05-28T00:15:58.026Z,100879.66
2023-05-28T00:18:25.386Z,100888.84
2023-05-28T00:20:52.527Z,100879.78
2023-05-28T00:23:19.822Z,100883.38
2023-05-28T00:25:47.761Z,100887.25
2023-05-28T00:28:14.783Z,100879.75
2023-05-28T00:30:41.885Z,100880.41
2023-05-28T00:33:08.926Z,100877.75
2023-05-28T00:35:36.458Z,100877.16
2023-05-28T00:38:03.761Z,100873.38
2023-05-28T00:40:30.832Z,100867.38
2023-05-28T00:42:59.165Z,100863.88
2023-05-28T00:45:26.043Z,100872.88
2023-05-28T00:47:53.358Z,100873.94
2023-05-28T00:50:21.628Z,100872.34
2023-05-28T00:52:53.439Z,100879.13
2023-05-28T00:55:22.076Z,100882.16
2023-05-28T00:57:49.504Z,100875.69
2023-05-28T01:00:17.678Z,100872.47
2023-05-28T01:02:45.439Z,100872.47
2023-05-28T01:05:12.672Z,100868.44
2023-05-28T01:07:39.763Z,100864.97
2023-05-28T01:10:07.724Z,100877.41
2023-05-28T01:12:38.081Z,100870.41
2023-05-28T01:15:05.431Z,100875.84
2023-05-28T01:17:33.264Z,100865.91
2023-05-28T01:20:14.573Z,100871.09
2023-05-28T01:22:47.743Z,100872.75
2023-05-28T01:25:17.515Z,100872.75
2023-05-28T01:27:45.069Z,100868.22
2023-05-28T01:30:15.544Z,100871.00
2023-05-28T01:32:44.266Z,100868.56
2023-05-28T01:35:13.362Z,100870.47
2023-05-28T01:37:54.326Z,100868.56
2023-05-28T01:40:23.735Z,100865.59
2023-05-28T01:42:51.803Z,100872.41
2023-05-28T01:45:19.435Z,100864.56
2023-05-28T01:47:47.151Z,100864.09
2023-05-28T01:50:15.138Z,100863.06
2023-05-28T01:52:43.583Z,100863.91
2023-05-28T01:55:12.644Z,100871.53
2023-05-28T01:57:39.989Z,100865.34
2023-05-28T02:00:08.813Z,100866.72
2023-05-28T02:02:45.324Z,100860.25
2023-05-28T02:05:17.950Z,100866.78
2023-05-28T02:07:47.573Z,100867.66
2023-05-28T02:10:14.683Z,100862.84
2023-05-28T02:12:41.624Z,100861.53
2023-05-28T02:15:11.135Z,100863.72
2023-05-28T02:17:38.737Z,100868.06
2023-05-28T02:20:08.297Z,100869.19
2023-05-28T02:22:35.638Z,100862.47
2023-05-28T02:25:02.507Z,100859.22
2023-05-28T02:27:29.501Z,100859.50
2023-05-28T02:29:57.633Z,100864.69
2023-05-28T02:32:24.870Z,100852.53
2023-05-28T02:34:56.220Z,100862.28
2023-05-28T02:37:25.429Z,100853.13
2023-05-28T02:39:52.977Z,100851.78
2023-05-28T02:42:20.092Z,100863.97
2023-05-28T02:44:49.922Z,100854.81
2023-05-28T02:47:21.778Z,100851.03
2023-05-28T02:49:48.722Z,100856.97
2023-05-28T02:52:17.022Z,100855.91
2023-05-28T02:54:46.950Z,100865.66
2023-05-28T02:57:14.106Z,100855.44
2023-05-28T02:59:41.055Z,100866.22
2023-05-28T03:02:08.223Z,100862.44
2023-05-28T03:04:36.498Z,100860.81
2023-05-28T03:07:04.283Z,100866.75
2023-05-28T03:09:33.216Z,100858.69
2023-05-28T03:12:00.460Z,100859.28
2023-05-28T03:14:29.336Z,100859.81
2023-05-28T03:16:56.251Z,100864.41
2023-05-28T03:19:25.617Z,100865.19
2023-05-28T03:21:52.853Z,100866.00
2023-05-28T03:24:21.822Z,100871.97
2023-05-28T03:26:56.058Z,100870.63
2023-05-28T03:29:24.662Z,100870.09
2023-05-28T03:32:14.447Z,100867.97
2023-05-28T03:34:41.686Z,100866.06
2023-05-28T03:37:08.718Z,100873.38
2023-05-28T03:39:37.516Z,100868.78
2023-05-28T03:42:06.055Z,100865.81
2023-05-28T03:44:33.032Z,100864.69
2023-05-28T03:47:00.381Z,100862.56
2023-05-28T03:49:29.143Z,100865.81
2023-05-28T03:51:58.139Z,100862.31
2023-05-28T03:54:27.653Z,100867.97
2023-05-28T03:56:54.670Z,100862.03
2023-05-28T03:59:22.016Z,100859.88
2023-05-28T04:01:49.188Z,100869.88
2023-05-28T04:04:16.776Z,100867.44
2023-05-28T04:06:45.648Z,100872.53
2023-05-28T04:09:13.031Z,100866.88
2023-05-28T04:11:42.757Z,100864.16
2023-05-28T04:14:13.371Z,100860.66
2023-05-28T04:16:42.541Z,100865.53
2023-05-28T04:19:09.757Z,100863.38
2023-05-28T04:21:37.967Z,100865.81
2023-05-28T04:24:05.268Z,100867.97
2023-05-28T04:26:33.204Z,100867.97
2023-05-28T04:29:01.158Z,100864.16
2023-05-28T04:31:30.952Z,100869.03
2023-05-28T04:33:57.883Z,100867.13
2023-05-28T04:36:30.560Z,100860.41
2023-05-28T04:39:02.339Z,100872.00
2023-05-28T04:41:30.243Z,100874.69
2023-05-28T04:43:58.852Z,100866.34
2023-05-28T04:46:30.847Z,100874.97
2023-05-28T04:48:59.113Z,100882.53
2023-05-28T04:51:27.545Z,100881.47
2023-05-28T04:53:54.330Z,100887.38
2023-05-28T04:56:22.043Z,100887.38
2023-05-28T04:58:48.912Z,100885.22
2023-05-28T05:01:16.714Z,100889.25
2023-05-28T05:03:44.281Z,100886.78
2023-05-28T05:06:12.256Z,100891.41
2023-05-28T05:08:39.072Z,100895.97
2023-05-28T05:11:07.729Z,100899.72
2023-05-28T05:13:36.598Z,100897.00
2023-05-28T05:16:13.446Z,100895.66
2023-05-28T05:18:48.673Z,100892.13
2023-05-28T05:21:18.575Z,100897.81
2023-05-28T05:23:45.592Z,100900.22
2023-05-28T05:26:18.285Z,100905.88
2023-05-28T05:28:47.904Z,100895.34
2023-05-28T05:31:15.428Z,100909.88
2023-05-28T05:33:43.079Z,100908.78
2023-05-28T05:36:28.500Z,100903.38
2023-05-28T05:39:19.873Z,100899.81
2023-05-28T05:42:09.898Z,100900.63
2023-05-28T05:44:43.235Z,100905.97
2023-05-28T05:47:10.086Z,100903.28
2023-05-28T05:49:38.349Z,100901.91
2023-05-28T05:52:05.429Z,100902.41
2023-05-28T05:54:35.937Z,100900.75
2023-05-28T05:57:06.085Z,100905.25
2023-05-28T05:59:33.704Z,100911.69
2023-05-28T06:02:02.510Z,100908.91
2023-05-28T06:04:33.345Z,100910.53
2023-05-28T06:07:26.386Z,100914.06
2023-05-28T06:10:13.094Z,100909.16
2023-05-28T06:12:41.912Z,100911.03
2023-05-28T06:15:09.597Z,100912.72
2023-05-28T06:17:36.678Z,100910.03
2023-05-28T06:20:08.064Z,100904.03
2023-05-28T06:22:34.978Z,100911.91
2023-05-28T06:25:02.495Z,100908.38
2023-05-28T06:27:29.467Z,100912.13
2023-05-28T06:29:56.597Z,100913.47
2023-05-28T06:32:23.321Z,100915.88
2023-05-28T06:34:50.208Z,100919.56
2023-05-28T06:37:17.186Z,100918.38
2023-05-28T06:39:44.787Z,100924.84
2023-05-28T06:42:13.482Z,100909.66
2023-05-28T06:44:48.083Z,100914.22
2023-05-28T06:47:16.834Z,100910.13
2023-05-28T06:49:44.496Z,100910.59
2023-05-28T06:52:14.352Z,100917.19
2023-05-28T06:54:41.188Z,100908.38
2023-05-28T06:57:09.687Z,100907.81
2023-05-28T06:59:42.553Z,100916.31
2023-05-28T07:02:28.419Z,100909.69
2023-05-28T07:05:15.436Z,100915.91
2023-05-28T07:07:45.940Z,100929.47
2023-05-28T07:10:14.795Z,100922.94
2023-05-28T07:12:44.483Z,100917.97
2023-05-28T07:15:11.552Z,100920.00
2023-05-28T07:17:38.981Z,100918.22
2023-05-28T07:20:07.188Z,100915.25
2023-05-28T07:22:55.409Z,100911.28
2023-05-28T07:25:22.206Z,100914.91
2023-05-28T07:27:52.590Z,100917.44
2023-05-28T07:30:27.239Z,100919.38
2023-05-28T07:32:57.472Z,100923.09
2023-05-28T07:35:25.706Z,100928.78
2023-05-28T07:37:54.561Z,100926.03
2023-05-28T07:40:21.390Z,100910.81
2023-05-28T07:42:50.017Z,100918.56
2023-05-28T07:45:17.903Z,100920.94
2023-05-28T07:47:45.342Z,100924.88
2023-05-28T07:50:32.753Z,100927.38
2023-05-28T07:53:15.062Z,100921.84
2023-05-28T07:55:42.130Z,100919.25
2023-05-28T07:58:09.971Z,100920.06
2023-05-28T08:00:37.801Z,100915.38
2023-05-28T08:03:06.572Z,100914.59
2023-05-28T08:05:38.655Z,100918.31
2023-05-28T08:08:05.697Z,100914.84
2023-05-28T08:10:33.256Z,100908.84
2023-05-28T08:13:00.233Z,100900.13
2023-05-28T08:15:27.160Z,100895.63
2023-05-28T08:17:58.488Z,100897.56
2023-05-28T08:20:30.412Z,100890.78
2023-05-28T08:23:04.258Z,100887.16
2023-05-28T08:25:31.826Z,100883.41
2023-05-28T08:28:06.466Z,100866.44
2023-05-28T08:30:36.243Z,100861.06
2023-05-28T08:33:12.316Z,100859.63
2023-05-28T08:35:41.846Z,100852.69
2023-05-28T08:38:08.936Z,100841.91
2023-05-28T08:40:43.141Z,100843.78
2023-05-28T08:43:11.298Z,100837.91
2023-05-28T08:45:38.792Z,100837.06
2023-05-28T08:48:10.236Z,100829.72
2023-05-28T08:50:43.004Z,100826.38
2023-05-28T08:53:20.175Z,100817.97
2023-05-28T08:55:48.726Z,100811.69
2023-05-28T08:58:27.679Z,100811.50
2023-05-28T09:00:56.038Z,100805.75
2023-05-28T09:03:40.658Z,100795.56
2023-05-28T09:06:15.286Z,100798.72
2023-05-28T09:08:45.461Z,100791.63
2023-05-28T09:11:22.794Z,100783.72
2023-05-28T09:13:50.071Z,100783.94
2023-05-28T09:16:24.292Z,100777.28
2023-05-28T09:19:04.637Z,100772.22
2023-05-28T09:21:35.636Z,100772.72
2023-05-28T09:24:05.721Z,100771.66
2023-05-28T09:26:35.293Z,100768.38
2023-05-28T09:29:21.504Z,100774.91
2023-05-28T09:31:57.428Z,100760.72
2023-05-28T09:34:31.840Z,100764.13
2023-05-28T09:37:06.064Z,100748.94
2023-05-28T09:39:33.368Z,100750.25
2023-05-28T09:42:12.753Z,100746.56
2023-05-28T09:44:41.068Z,100746.00
2023-05-28T09:47:19.358Z,100743.31
2023-05-28T09:49:47.036Z,100748.25
2023-05-28T09:52:23.554Z,100735.44
2023-05-28T09:54:56.607Z,100735.69
2023-05-28T09:57:32.454Z,100728.03
2023-05-28T10:00:02.772Z,100729.03
2023-05-28T10:03:11.581Z,100735.38
2023-05-28T10:05:42.341Z,100722.34
2023-05-28T10:08:16.767Z,100720.03
2023-05-28T10:10:47.089Z,100723.47
2023-05-28T10:13:14.333Z,100711.78
2023-05-28T10:15:41.774Z,100722.25
2023-05-28T10:18:09.754Z,100727.22
2023-05-28T10:20:37.164Z,100726.78
2023-05-28T10:23:06.532Z,100717.47
2023-05-28T10:25:34.655Z,100720.69
2023-05-28T10:28:03.578Z,100719.44
2023-05-28T10:30:37.689Z,100724.47
2023-05-28T10:33:17.231Z,100715.47
2023-05-28T10:36:04.840Z,100716.66
2023-05-28T10:38:47.990Z,100718.66
2023-05-28T10:41:22.569Z,100717.09
2023-05-28T10:43:50.557Z,100721.34
2023-05-28T10:46:27.684Z,100711.09
2023-05-28T10:49:06.760Z,100693.97
2023-05-28T10:52:03.223Z,100704.53
2023-05-28T10:54:48.208Z,100696.25
2023-05-28T10:57:20.521Z,100695.31
2023-05-28T10:59:54.140Z,100682.69
2023-05-28T11:02:28.879Z,100687.31
2023-05-28T11:05:06.607Z,100680.28
2023-05-28T11:07:39.805Z,100694.06
2023-05-28T11:10:15.830Z,100683.47
2023-05-28T11:12:46.551Z,100673.69
2023-05-28T11:15:20.870Z,100679.88
2023-05-28T11:17:56.200Z,100665.75
2023-05-28T11:20:27.786Z,100670.31
2023-05-28T11:22:56.314Z,100670.44
2023-05-28T11:25:26.829Z,100660.31
2023-05-28T11:27:54.859Z,100651.50
2023-05-28T11:30:22.707Z,100658.94
2023-05-28T11:32:51.460Z,100651.69
2023-05-28T11:35:18.776Z,100663.97
2023-05-28T11:37:47.766Z,100657.50
2023-05-28T11:40:15.840Z,100661.19
2023-05-28T11:42:45.628Z,100652.56
2023-05-28T11:45:13.917Z,100648.72
2023-05-28T11:47:43.907Z,100647.44
2023-05-28T11:50:16.089Z,100650.44
2023-05-28T11:52:44.095Z,100646.31
2023-05-28T11:55:16.698Z,100644.25
2023-05-28T11:57:57.085Z,100629.59
2023-05-28T12:00:35.179Z,100623.31
2023-05-28T12:03:03.601Z,100636.00
2023-05-28T12:05:40.128Z,100632.50
2023-05-28T12:08:08.229Z,100639.88
2023-05-28T12:10:35.122Z,100641.16
2023-05-28T12:13:03.445Z,100645.13
2023-05-28T12:15:32.762Z,100640.91
2023-05-28T12:18:02.400Z,100649.22
2023-05-28T12:20:34.173Z,100650.47
2023-05-28T12:23:02.886Z,100650.63
2023-05-28T12:25:30.161Z,100657.25
2023-05-28T12:27:57.681Z,100658.06
2023-05-28T12:30:24.703Z,100646.19
2023-05-28T12:32:52.117Z,100644.84
2023-05-28T12:35:19.685Z,100650.94
2023-05-28T12:37:46.573Z,100659.50
2023-05-28T12:40:14.463Z,100651.53
2023-05-28T12:42:41.672Z,100650.88
2023-05-28T12:45:09.282Z,100651.31
2023-05-28T12:47:36.359Z,100644.66
2023-05-28T12:50:06.937Z,100640.88
2023-05-28T12:52:37.169Z,100642.06
2023-05-28T12:55:15.357Z,100640.47
2023-05-28T12:57:51.021Z,100630.63
2023-05-28T13:00:20.993Z,100631.44
2023-05-28T13:02:48.580Z,100626.31
2023-05-28T13:05:16.966Z,100628.31
2023-05-28T13:07:45.717Z,100627.13
2023-05-28T13:10:15.056Z,100629.13
2023-05-28T13:12:43.119Z,100626.34
2023-05-28T13:15:11.509Z,100633.03
2023-05-28T13:17:38.810Z,100626.25
2023-05-28T13:20:12.725Z,100629.81
2023-05-28T13:22:41.565Z,100627.47
2023-05-28T13:25:09.309Z,100632.63
2023-05-28T13:27:36.573Z,100630.25
2023-05-28T13:30:04.424Z,100627.50
2023-05-28T13:32:35.889Z,100626.69
2023-05-28T13:35:08.631Z,100629.03
2023-05-28T13:37:35.705Z,100633.25
2023-05-28T13:40:17.311Z,100628.84
2023-05-28T13:42:46.160Z,100636.75
2023-05-28T13:45:14.852Z,100620.88
2023-05-28T13:47:50.658Z,100614.88
2023-05-28T13:50:17.988Z,100616.97
2023-05-28T13:52:54.280Z,100613.13
2023-05-28T13:55:27.222Z,100610.75
2023-05-28T13:57:59.918Z,100610.72
2023-05-28T14:00:39.556Z,100614.56
2023-05-28T14:03:06.826Z,100604.28
2023-05-28T14:05:36.913Z,100605.13
2023-05-28T14:08:04.061Z,100599.66
2023-05-28T14:10:37.143Z,100597.31
2023-05-28T14:13:04.254Z,100596.50
2023-05-28T14:15:38.830Z,100597.22
2023-05-28T14:18:10.364Z,100597.94
2023-05-28T14:20:41.044Z,100593.16
2023-05-28T14:23:10.305Z,100589.25
2023-05-28T14:25:42.527Z,100590.69
2023-05-28T14:28:12.814Z,100595.38
2023-05-28T14:30:40.784Z,100598.09
2023-05-28T14:33:13.858Z,100587.44
2023-05-28T14:35:44.722Z,100583.94
2023-05-28T14:38:12.123Z,100586.28
2023-05-28T14:40:39.935Z,100583.06
2023-05-28T14:43:10.234Z,100579.09
2023-05-28T14:45:41.294Z,100584.25
2023-05-28T14:48:09.334Z,100586.28
2023-05-28T14:50:39.874Z,100577.63
2023-05-28T14:53:07.514Z,100584.34
2023-05-28T14:55:34.961Z,100583.53
2023-05-28T14:58:03.633Z,100574.09
2023-05-28T15:00:30.787Z,100576.44
2023-05-28T15:03:00.459Z,100571.66
2023-05-28T15:05:29.224Z,100581.03
2023-05-28T15:07:57.392Z,100576.13
2023-05-28T15:10:27.895Z,100561.06
2023-05-28T15:12:56.491Z,100563.44
2023-05-28T15:15:26.141Z,100565.75
2023-05-28T15:17:53.546Z,100563.06
2023-05-28T15:20:22.458Z,100566.63
2023-05-28T15:22:49.877Z,100563.81
2023-05-28T15:25:18.060Z,100567.34
2023-05-28T15:27:45.265Z,100563.72
2023-05-28T15:30:16.353Z,100576.66
2023-05-28T15:32:46.643Z,100559.28
2023-05-28T15:35:15.295Z,100562.44
2023-05-28T15:37:42.900Z,100562.50
2023-05-28T15:40:13.551Z,100560.16
2023-05-28T15:42:42.692Z,100551.88
2023-05-28T15:45:10.741Z,100543.53
2023-05-28T15:47:37.974Z,100560.06
2023-05-28T15:50:06.325Z,100563.13
2023-05-28T15:52:36.243Z,100547.25
2023-05-28T15:55:06.064Z,100540.16
2023-05-28T15:57:33.538Z,100544.16
2023-05-28T16:00:01.464Z,100541.00
2023-05-28T16:02:35.057Z,100543.38
2023-05-28T16:05:08.585Z,100551.00
2023-05-28T16:07:36.059Z,100547.66
2023-05-28T16:10:03.865Z,100551.81
2023-05-28T16:12:32.013Z,100546.91
2023-05-28T16:15:21.559Z,100541.31
2023-05-28T16:17:56.298Z,100554.69
2023-05-28T16:20:29.069Z,100537.28
2023-05-28T16:22:58.216Z,100540.38
2023-05-28T16:25:28.802Z,100539.16
2023-05-28T16:27:58.437Z,100551.25
2023-05-28T16:30:30.530Z,100552.22
2023-05-28T16:32:59.090Z,100541.94
2023-05-28T16:35:26.899Z,100548.09
2023-05-28T16:37:56.807Z,100542.75
2023-05-28T16:40:24.624Z,100540.16
2023-05-28T16:42:52.037Z,100540.06
2023-05-28T16:45:24.763Z,100534.56
2023-05-28T16:47:54.765Z,100530.28
2023-05-28T16:50:29.350Z,100537.75
2023-05-28T16:52:56.452Z,100536.91
2023-05-28T16:55:24.094Z,100532.75
2023-05-28T16:57:54.498Z,100533.38
2023-05-28T17:00:24.990Z,100532.81
2023-05-28T17:02:53.291Z,100533.84
2023-05-28T17:05:29.943Z,100542.34
2023-05-28T17:07:57.051Z,100535.94
2023-05-28T17:10:30.752Z,100536.69
2023-05-28T17:12:57.870Z,100535.06
2023-05-28T17:15:30.964Z,100530.75
2023-05-28T17:18:00.672Z,100537.38
2023-05-28T17:20:32.405Z,100538.13
2023-05-28T17:23:00.902Z,100538.84
2023-05-28T17:25:32.271Z,100547.41
2023-05-28T17:28:12.372Z,100539.47
2023-05-28T17:30:39.389Z,100540.56
2023-05-28T17:33:06.828Z,100544.41
2023-05-28T17:35:33.989Z,100547.88
2023-05-28T17:38:01.494Z,100544.25
2023-05-28T17:40:28.650Z,100550.03
2023-05-28T17:43:01.993Z,100553.06
2023-05-28T17:45:29.428Z,100548.16
2023-05-28T17:47:57.118Z,100554.75
2023-05-28T17:50:30.826Z,100555.41
2023-05-28T17:53:00.870Z,100559.59
2023-05-28T17:55:28.147Z,100562.59
2023-05-28T17:58:00.967Z,100559.28
2023-05-28T18:00:28.025Z,100565.41
2023-05-28T18:03:03.152Z,100567.59
2023-05-28T18:05:35.440Z,100577.72
2023-05-28T18:08:03.117Z,100568.59
2023-05-28T18:10:32.793Z,100569.69
2023-05-28T18:12:59.984Z,100576.25
2023-05-28T18:15:32.737Z,100572.44
2023-05-28T18:18:02.921Z,100587.13
2023-05-28T18:20:30.909Z,100576.00
2023-05-28T18:22:57.959Z,100582.19
2023-05-28T18:25:30.267Z,100577.41
2023-05-28T18:27:57.797Z,100576.53
2023-05-28T18:30:26.386Z,100580.22
2023-05-28T18:32:58.880Z,100581.28
2023-05-28T18:35:28.022Z,100584.66
2023-05-28T18:37:56.288Z,100586.06
2023-05-28T18:40:23.449Z,100581.97
2023-05-28T18:42:55.375Z,100590.44
2023-05-28T18:45:22.398Z,100591.16
2023-05-28T18:47:50.060Z,100591.44
2023-05-28T18:50:20.401Z,100596.38
2023-05-28T18:52:47.194Z,100595.38
2023-05-28T18:55:14.212Z,100595.19
2023-05-28T18:57:41.262Z,100593.84
2023-05-28T19:00:09.254Z,100593.25
2023-05-28T19:02:36.529Z,100595.09
2023-05-28T19:05:04.324Z,100600.81
2023-05-28T19:07:31.479Z,100607.69
2023-05-28T19:10:02.362Z,100607.47
2023-05-28T19:12:33.936Z,100613.53
2023-05-28T19:15:04.813Z,100617.22
2023-05-28T19:17:32.586Z,100618.59
2023-05-28T19:20:01.369Z,100618.84
2023-05-28T19:22:35.824Z,100623.75
2023-05-28T19:25:06.476Z,100622.03
2023-05-28T19:27:36.518Z,100626.59
2023-05-28T19:30:29.212Z,100635.81
2023-05-28T19:33:31.473Z,100638.69
2023-05-28T19:36:03.869Z,100640.03
2023-05-28T19:42:21.601Z,100654.41
2023-05-28T19:44:51.995Z,100645.94
2023-05-28T19:47:24.371Z,100655.50
2023-05-28T19:50:00.740Z,100658.94
2023-05-28T19:52:37.978Z,100659.13
2023-05-28T19:55:12.037Z,100653.44
2023-05-28T19:57:43.575Z,100659.56
2023-05-28T20:00:24.551Z,100664.13
2023-05-28T20:02:58.525Z,100664.63
2023-05-28T20:05:26.068Z,100664.53
2023-05-28T20:08:17.819Z,100661.34
2023-05-28T20:11:00.228Z,100661.84
2023-05-28T20:13:43.375Z,100661.75
2023-05-28T20:16:17.748Z,100665.81
2023-05-28T20:18:44.933Z,100667.97
2023-05-28T20:21:12.148Z,100670.56
2023-05-28T20:23:39.222Z,100675.78
2023-05-28T20:26:06.520Z,100674.38
2023-05-28T20:29:07.024Z,100679.13
2023-05-28T20:36:35.181Z,100685.88
2023-05-28T20:39:34.711Z,100685.72
2023-05-28T20:43:11.798Z,100698.63
2023-05-28T20:46:19.157Z,100693.53
2023-05-28T20:48:56.523Z,100694.66
2023-05-28T20:55:03.930Z,100700.47
2023-05-28T20:57:54.712Z,100699.06
2023-05-28T21:00:25.872Z,100702.00
2023-05-28T21:02:57.703Z,100704.72
2023-05-28T21:05:48.213Z,100704.25
2023-05-28T21:08:39.841Z,100702.50
2023-05-28T21:14:13.000Z,100701.09
2023-05-28T21:26:12.337Z,100715.53
2023-05-28T21:28:42.185Z,100715.88
2023-05-28T21:31:13.608Z,100715.59
2023-05-28T21:33:52.982Z,100712.41
2023-05-28T21:36:36.204Z,100719.63
2023-05-28T21:39:18.858Z,100721.38
2023-05-28T21:41:46.116Z,100716.56
2023-05-28T21:44:13.622Z,100717.22
2023-05-28T21:46:40.973Z,100713.06
2023-05-28T21:49:12.460Z,100700.56
2023-05-28T21:51:40.326Z,100716.91
2023-05-28T21:54:13.682Z,100718.19
2023-05-28T21:56:40.706Z,100721.22
2023-05-28T21:59:07.927Z,100714.00
2023-05-28T22:01:38.975Z,100710.63
2023-05-28T22:04:06.621Z,100720.56
2023-05-28T22:06:37.525Z,100716.88
2023-05-28T22:09:04.733Z,100726.34
2023-05-28T22:11:34.334Z,100720.22
2023-05-28T22:14:03.709Z,100721.97
2023-05-28T22:16:32.385Z,100724.88
2023-05-28T22:18:59.857Z,100727.72
2023-05-28T22:21:26.819Z,100726.56
2023-05-28T22:23:54.139Z,100728.66
2023-05-28T22:26:23.070Z,100727.69
2023-05-28T22:28:58.862Z,100729.75
2023-05-28T22:31:26.613Z,100734.72
2023-05-28T22:33:54.343Z,100733.44
2023-05-28T22:36:22.079Z,100727.81
2023-05-28T22:38:51.091Z,100727.00
2023-05-28T22:41:17.993Z,100726.31
2023-05-28T22:43:48.422Z,100717.34
2023-05-28T22:46:15.703Z,100726.66
2023-05-28T22:48:42.825Z,100721.81
2023-05-28T22:51:09.686Z,100714.78
2023-05-28T22:56:23.235Z,100717.63
2023-05-28T22:58:53.229Z,100726.09
2023-05-28T23:01:21.468Z,100726.91
2023-05-28T23:03:48.948Z,100728.03
2023-05-28T23:06:18.310Z,100730.75
2023-05-28T23:08:45.911Z,100735.09
2023-05-28T23:11:13.256Z,100738.78
2023-05-28T23:13:42.741Z,100741.81
2023-05-28T23:16:09.948Z,100743.84
2023-05-28T23:18:37.652Z,100748.31
2023-05-28T23:21:09.288Z,100745.75
2023-05-28T23:23:38.326Z,100748.56
2023-05-28T23:26:05.640Z,100749.81
2023-05-28T23:28:33.106Z,100748.97
2023-05-28T23:31:00.156Z,100751.84
2023-05-28T23:33:30.099Z,100745.09
2023-05-28T23:35:57.588Z,100746.03
2023-05-28T23:38:25.015Z,100744.25
2023-05-28T23:40:52.132Z,100745.66
2023-05-28T23:43:18.981Z,100753.81
2023-05-28T23:45:50.157Z,100747.91
2023-05-28T23:48:18.232Z,100752.34
2023-05-28T23:50:45.363Z,100754.06
2023-05-28T23:53:13.448Z,100747.66
2023-05-28T23:55:40.577Z,100754.81
2023-05-28T23:58:08.699Z,100748.34
